Amagansett, New York
Current Conditions -  °F | °C
As of 12:56 PM on Tuesday 21 Oct 2014 (Local Time) from KGON Reporting Station
Scattered Clouds Scattered Clouds  
Wind Chill: 64°   Ceiling: Unl
Heat Index: 64°   Visibility: 10mi
Dew Point: 52°   Wind: 8mph
Humidity: 65%   Direction: 170°S
Pressure: 29.89"   Gusts: NA
Location:  40.97°N, 72.14°W
Report Text: KGON 211656Z 17007KT 10SM SCT015 18/11 A2989 RMK AO2 SLP123 T01780111
Loading
Personal Weather Stations






























Interactive Weather Map
Tropical Storm Tracking
New forecast layout! Learn more

10-Day Weather Forecast

Advertisements
Track Severe Weather on mobile